Grand Island, Nebraska
Current Conditions -  °F | °C
As of 10:53 AM on Wednesday 22 Oct 2014 (Local Time) from KGRI Reporting Station
Clear Clear  
Wind Chill: 67°   Ceiling: Unl
Heat Index: 67°   Visibility: 10mi
Dew Point: 55°   Wind: 17mph
Humidity: 66%   Direction: 170°S
Pressure: 30.01"   Gusts: 25mph
Location:  40.92°N, 98.34°W
Report Text: KGRI 221553Z 17015G22KT 10SM CLR 19/13 A3001 RMK AO2 SLP154 T01940128
Loading
Personal Weather Stations






























Interactive Weather Map
Tropical Storm Tracking
New forecast layout! Learn more

10-Day Weather Forecast

Advertisements
Track Severe Weather on mobile